Time;durP1;ratioP1;P1;durP2;ratioP2;P2;SDS_P1;SDS_P2;PMS_P1;PMS_P2;Temp;Humidity;BMP_temperature;BMP_pressure;BME280_temperature;BME280_humidity;BME280_pressure;Samples;Min_cycle;Max_cycle;Signal;HPM_P1;HPM_P2
2022/04/18 00:07:41;;;;;;;14.2;27.6;;;;;;;0.5;71.2;99070;;;;
2022/04/18 00:18:41;;;;;;;14.2;27.6;;;;;;;0.5;73;99070;;;;
2022/04/18 00:29:41;;;;;;;14.2;27.6;;;;;;;0.4;73.7;99070;;;;
2022/04/18 00:39:41;;;;;;;10.7;19.5;;;;;;;0.3;73.2;99060;;;;
2022/04/18 00:50:41;;;;;;;10.7;19.5;;;;;;;0.2;73.8;99040;;;;
2022/04/18 01:01:41;;;;;;;10.7;19.5;;;;;;;0.1;73.4;99040;;;;
2022/04/18 01:11:41;;;;;;;11.3;17.5;;;;;;;0;73.8;99020;;;;
2022/04/18 01:22:42;;;;;;;11.3;17.5;;;;;;;0;74;99020;;;;
2022/04/18 01:33:41;;;;;;;11.3;17.5;;;;;;;0.1;74.5;99000;;;;
2022/04/18 01:44:41;;;;;;;11;17.2;;;;;;;0.4;74.7;98990;;;;
2022/04/18 01:55:41;;;;;;;11;17.2;;;;;;;0.7;75;98980;;;;
2022/04/18 02:06:41;;;;;;;11;17.2;;;;;;;0.7;76.2;98990;;;;
2022/04/18 02:16:41;;;;;;;13.7;20.9;;;;;;;0.7;76.4;98970;;;;
2022/04/18 02:27:41;;;;;;;13.7;20.9;;;;;;;0.7;76.4;98970;;;;
2022/04/18 02:38:41;;;;;;;11.4;19.7;;;;;;;0.8;77.3;98960;;;;
2022/04/18 02:48:44;;;;;;;11.4;19.7;;;;;;;1.1;76.2;98950;;;;
2022/04/18 02:59:41;;;;;;;11.4;19.7;;;;;;;1.3;75.7;98940;;;;
2022/04/18 03:11:13;;;;;;;12.2;20.2;;;;;;;1.5;75.3;98930;;;;
2022/04/18 03:20:42;;;;;;;12.2;20.2;;;;;;;1.7;74.3;98920;;;;
2022/04/18 03:30:41;;;;;;;12.2;20.2;;;;;;;1.7;74.2;98910;;;;
2022/04/18 03:41:41;;;;;;;15.5;21.5;;;;;;;1.7;74.9;98920;;;;
2022/04/18 03:52:41;;;;;;;15.5;21.5;;;;;;;1.8;75.2;98920;;;;
2022/04/18 04:03:41;;;;;;;15.5;21.5;;;;;;;1.5;77;98900;;;;
2022/04/18 04:14:41;;;;;;;16.5;19.9;;;;;;;1.7;76.1;98900;;;;
2022/04/18 04:25:41;;;;;;;16.5;19.9;;;;;;;1.9;75.8;98890;;;;
2022/04/18 04:36:41;;;;;;;17.5;22.9;;;;;;;2.4;75.3;98910;;;;
2022/04/18 04:47:43;;;;;;;17.5;22.9;;;;;;;2.6;74.3;98910;;;;
2022/04/18 04:58:41;;;;;;;17.5;22.9;;;;;;;2.9;73.8;98910;;;;
2022/04/18 05:08:41;;;;;;;18.3;25.1;;;;;;;3.1;73;98910;;;;
2022/04/18 05:19:41;;;;;;;18.3;25.1;;;;;;;3;70.7;98910;;;;
2022/04/18 05:29:41;;;;;;;18.3;25.1;;;;;;;3.2;71.1;98920;;;;
2022/04/18 05:39:41;;;;;;;16.3;24.6;;;;;;;3.6;72.3;98950;;;;
2022/04/18 05:50:45;;;;;;;16.3;24.6;;;;;;;4.4;72.6;98920;;;;
2022/04/18 06:01:43;;;;;;;16.3;24.6;;;;;;;4.3;71.9;98910;;;;
2022/04/18 06:12:41;;;;;;;21.3;26;;;;;;;4.2;71.5;98900;;;;
2022/04/18 06:23:41;;;;;;;21.3;26;;;;;;;5.2;70;98910;;;;
2022/04/18 06:33:41;;;;;;;21.3;26;;;;;;;5.2;67.4;98920;;;;
2022/04/18 06:43:41;;;;;;;22.5;28.6;;;;;;;6;65.6;98920;;;;
2022/04/18 06:54:41;;;;;;;22.5;28.6;;;;;;;6.1;65.1;98910;;;;
2022/04/18 07:04:41;;;;;;;22.5;28.6;;;;;;;5.9;65.5;98890;;;;
2022/04/18 07:14:41;;;;;;;21;26.6;;;;;;;5.8;65.6;98880;;;;
2022/04/18 07:24:41;;;;;;;21;26.6;;;;;;;5.6;64.5;98880;;;;
2022/04/18 07:35:41;;;;;;;21;26.6;;;;;;;5.9;64.3;98870;;;;
2022/04/18 07:46:42;;;;;;;16.5;22.4;;;;;;;6.6;63.5;98870;;;;
2022/04/18 07:56:43;;;;;;;16.5;22.4;;;;;;;6.9;63.2;98870;;;;
2022/04/18 08:07:41;;;;;;;11.6;14.6;;;;;;;7.4;58.7;98870;;;;
2022/04/18 08:17:41;;;;;;;11.6;14.6;;;;;;;7.5;58.1;98860;;;;
2022/04/18 08:27:41;;;;;;;11.6;14.6;;;;;;;7.8;55.9;98860;;;;
2022/04/18 08:38:41;;;;;;;8.2;11.1;;;;;;;8;54.6;98840;;;;
2022/04/18 09:00:41;;;;;;;8.2;11.1;;;;;;;9;51.7;98820;;;;
2022/04/18 09:11:41;;;;;;;7.8;11.8;;;;;;;10.2;46.8;98810;;;;
2022/04/18 09:22:42;;;;;;;7.8;11.8;;;;;;;9.9;45.8;98800;;;;
2022/04/18 09:33:41;;;;;;;7.8;11.8;;;;;;;9.9;41.9;98790;;;;
2022/04/18 09:44:41;;;;;;;6.7;9.5;;;;;;;9.6;42.7;98790;;;;
2022/04/18 09:54:41;;;;;;;6.7;9.5;;;;;;;9.5;43.8;98780;;;;
2022/04/18 10:05:41;;;;;;;6.7;9.5;;;;;;;9.3;44.5;98780;;;;
2022/04/18 10:15:41;;;;;;;5.7;10.3;;;;;;;9.2;46.7;98770;;;;
2022/04/18 10:25:41;;;;;;;5.7;10.3;;;;;;;9.2;45.5;98760;;;;
2022/04/18 10:35:41;;;;;;;9.8;10.3;;;;;;;9.5;44.5;98760;;;;
2022/04/18 10:46:41;;;;;;;9.8;13.5;;;;;;;9.7;45.8;98740;;;;
2022/04/18 10:57:41;;;;;;;9.8;13.5;;;;;;;10.2;44.6;98720;;;;
2022/04/18 11:08:41;;;;;;;6.6;9.5;;;;;;;10.9;41.6;98710;;;;
2022/04/18 11:18:42;;;;;;;6.6;9.5;;;;;;;10.3;40.9;98710;;;;
2022/04/18 11:29:41;;;;;;;6.6;9.5;;;;;;;9.2;43.2;98710;;;;
2022/04/18 11:40:42;;;;;;;4.1;6.6;;;;;;;9.5;41.1;98700;;;;
2022/04/18 11:51:41;;;;;;;4.1;6.6;;;;;;;9.8;40.8;98680;;;;
2022/04/18 12:12:41;;;;;;;3.1;5.6;;;;;;;10.3;38;98660;;;;
2022/04/18 12:22:41;;;;;;;3.1;5.6;;;;;;;10;41.2;98650;;;;
2022/04/18 12:32:44;;;;;;;3.1;5.6;;;;;;;9.8;40;98650;;;;
2022/04/18 12:43:41;;;;;;;4.2;6.3;;;;;;;9.6;40.1;98660;;;;
2022/04/18 12:53:41;;;;;;;4.2;6.3;;;;;;;9.3;41.1;98650;;;;
2022/04/18 13:04:41;;;;;;;4.2;6.3;;;;;;;9.6;39.4;98640;;;;
2022/04/18 13:15:41;;;;;;;2.6;4.2;;;;;;;10.5;39.1;98630;;;;
2022/04/18 13:26:41;;;;;;;2.6;4.2;;;;;;;10.4;38.6;98620;;;;
2022/04/18 13:37:41;;;;;;;4.2;6.6;;;;;;;10.1;39.5;98620;;;;
2022/04/18 13:47:41;;;;;;;4.2;6.6;;;;;;;10.4;38;98610;;;;
2022/04/18 13:57:41;;;;;;;4.2;6.6;;;;;;;10.8;38;98600;;;;
2022/04/18 14:08:41;;;;;;;3.9;6.7;;;;;;;10.6;37.3;98580;;;;
2022/04/18 14:28:41;;;;;;;3.9;6.7;;;;;;;10.7;38.7;98560;;;;
2022/04/18 14:38:41;;;;;;;3.8;6.5;;;;;;;10.7;40.1;98550;;;;
2022/04/18 14:49:41;;;;;;;3.8;6.5;;;;;;;11.2;37.5;98530;;;;
2022/04/18 14:59:41;;;;;;;3.8;6.5;;;;;;;10.8;39.6;98540;;;;
2022/04/18 15:09:41;;;;;;;3.8;6.5;;;;;;;10.2;38.5;98530;;;;
2022/04/18 15:19:41;;;;;;;3.8;6.5;;;;;;;10.2;38.1;98530;;;;
2022/04/18 15:29:41;;;;;;;3.8;6.5;;;;;;;11;38.5;98530;;;;
2022/04/18 15:40:41;;;;;;;3.5;6.1;;;;;;;10.7;37.8;98530;;;;
2022/04/18 15:50:41;;;;;;;3.5;6.1;;;;;;;10.9;37.3;98520;;;;
2022/04/18 16:01:41;;;;;;;3.5;6.1;;;;;;;10.4;38.2;98520;;;;
2022/04/18 16:12:42;;;;;;;5.9;10;;;;;;;9.5;39.9;98520;;;;
2022/04/18 16:22:41;;;;;;;5.9;10;;;;;;;9.4;40;98520;;;;
2022/04/18 16:33:43;;;;;;;5.9;10;;;;;;;8.9;40.4;98510;;;;
2022/04/18 16:54:41;;;;;;;4;6.8;;;;;;;8.4;41.8;98500;;;;
2022/04/18 17:05:41;;;;;;;5.8;9.4;;;;;;;8.2;43.1;98490;;;;
2022/04/18 17:16:41;;;;;;;5.8;9.4;;;;;;;8;43.6;98500;;;;
2022/04/18 17:26:41;;;;;;;5.8;9.4;;;;;;;7.8;44;98490;;;;
2022/04/18 17:37:41;;;;;;;4.7;7.8;;;;;;;7.6;45.7;98490;;;;
2022/04/18 17:48:41;;;;;;;4.7;7.8;;;;;;;7.4;47.9;98480;;;;
2022/04/18 17:59:41;;;;;;;4.7;7.8;;;;;;;7.1;50.5;98490;;;;
2022/04/18 18:09:41;;;;;;;6.8;8.9;;;;;;;6.9;51.1;98490;;;;
2022/04/18 18:19:43;;;;;;;6.8;8.9;;;;;;;6.7;50.1;98490;;;;
2022/04/18 18:29:41;;;;;;;6.8;8.9;;;;;;;6.6;52.3;98480;;;;
2022/04/18 18:40:41;;;;;;;7.4;9.9;;;;;;;6.4;51.6;98480;;;;
2022/04/18 19:00:41;;;;;;;7.4;9.9;;;;;;;6.3;52.7;98460;;;;
2022/04/18 19:11:42;;;;;;;11.7;15.9;;;;;;;6.3;54.3;98450;;;;
2022/04/18 19:33:41;;;;;;;11.7;15.9;;;;;;;6.1;57.1;98440;;;;
2022/04/18 19:53:42;;;;;;;11.6;18.2;;;;;;;5.8;56.2;98410;;;;
2022/04/18 20:04:41;;;;;;;12.5;16.7;;;;;;;5.5;56.8;98400;;;;
2022/04/18 20:15:42;;;;;;;12.5;16.7;;;;;;;5.3;56.4;98400;;;;
2022/04/18 20:26:42;;;;;;;12.5;16.7;;;;;;;5;56.4;98400;;;;
2022/04/18 20:36:42;;;;;;;13.6;18.4;;;;;;;4.9;58.8;98390;;;;
2022/04/18 20:46:41;;;;;;;13.6;18.4;;;;;;;4.9;57.5;98390;;;;
2022/04/18 20:58:45;;;;;;;13.6;18.4;;;;;;;4.7;58.5;98390;;;;
2022/04/18 21:08:42;;;;;;;11.9;17.3;;;;;;;4.6;59.1;98380;;;;
2022/04/18 21:18:41;;;;;;;11.9;17.3;;;;;;;4.4;59.6;98370;;;;
2022/04/18 21:29:41;;;;;;;11.9;17.3;;;;;;;4.4;59.5;98360;;;;
2022/04/18 21:39:41;;;;;;;10.3;16.9;;;;;;;4.4;59.2;98350;;;;
2022/04/18 21:50:42;;;;;;;10.3;16.9;;;;;;;4.5;59.2;98340;;;;
2022/04/18 22:00:41;;;;;;;10.3;16.9;;;;;;;4.4;60.3;98330;;;;
2022/04/18 22:11:41;;;;;;;11.6;18.1;;;;;;;4.3;60.7;98320;;;;
2022/04/18 22:32:43;;;;;;;11.6;18.1;;;;;;;4.1;62.5;98310;;;;
2022/04/18 22:42:42;;;;;;;14.4;19.3;;;;;;;4;63.7;98290;;;;
2022/04/18 22:53:41;;;;;;;14.4;19.3;;;;;;;4.2;62.4;98290;;;;
2022/04/18 23:03:41;;;;;;;14.4;19.3;;;;;;;4.2;61.8;98280;;;;
2022/04/18 23:13:42;;;;;;;17;26.1;;;;;;;4.2;63.3;98260;;;;
2022/04/18 23:23:42;;;;;;;17;26.1;;;;;;;4.2;63.5;98250;;;;
2022/04/18 23:33:42;;;;;;;17;26.1;;;;;;;4.2;62.9;98250;;;;
2022/04/18 23:44:41;;;;;;;17.3;23.1;;;;;;;4.2;62.5;98250;;;;
2022/04/18 23:55:41;;;;;;;17.3;23.1;;;;;;;4.3;63.1;98240;;;;
